sensor_id;sensor_type;location;lat;lon;timestamp;temperature;humidity
6810;DHT22;3443;48.812;9.112;2022-11-15T00:01:32;9.80;99.90
6810;DHT22;3443;48.812;9.112;2022-11-15T00:03:58;9.90;99.90
6810;DHT22;3443;48.812;9.112;2022-11-15T00:06:23;9.90;99.90
6810;DHT22;3443;48.812;9.112;2022-11-15T00:08:49;10.00;99.90
6810;DHT22;3443;48.812;9.112;2022-11-15T00:11:14;10.10;99.90
6810;DHT22;3443;48.812;9.112;2022-11-15T00:13:40;9.90;99.90
6810;DHT22;3443;48.812;9.112;2022-11-15T00:16:06;10.00;99.90
6810;DHT22;3443;48.812;9.112;2022-11-15T00:18:31;10.00;99.90
6810;DHT22;3443;48.812;9.112;2022-11-15T00:21:04;10.00;99.90
6810;DHT22;3443;48.812;9.112;2022-11-15T00:23:30;10.00;99.90
6810;DHT22;3443;48.812;9.112;2022-11-15T00:25:57;10.00;99.90
6810;DHT22;3443;48.812;9.112;2022-11-15T00:28:23;10.00;99.90
6810;DHT22;3443;48.812;9.112;2022-11-15T00:30:49;10.00;99.90
6810;DHT22;3443;48.812;9.112;2022-11-15T00:33:14;10.00;99.90
6810;DHT22;3443;48.812;9.112;2022-11-15T00:35:40;10.00;99.90
6810;DHT22;3443;48.812;9.112;2022-11-15T00:38:06;10.00;99.90
6810;DHT22;3443;48.812;9.112;2022-11-15T00:40:31;10.00;99.90
6810;DHT22;3443;48.812;9.112;2022-11-15T00:42:57;10.00;99.90
6810;DHT22;3443;48.812;9.112;2022-11-15T00:45:23;10.00;99.90
6810;DHT22;3443;48.812;9.112;2022-11-15T00:47:49;10.00;99.90
6810;DHT22;3443;48.812;9.112;2022-11-15T00:50:15;9.90;99.90
6810;DHT22;3443;48.812;9.112;2022-11-15T00:52:40;9.80;99.90
6810;DHT22;3443;48.812;9.112;2022-11-15T00:55:06;9.80;99.90
6810;DHT22;3443;48.812;9.112;2022-11-15T00:57:32;9.90;99.90
6810;DHT22;3443;48.812;9.112;2022-11-15T00:59:57;10.00;99.90
6810;DHT22;3443;48.812;9.112;2022-11-15T01:02:23;9.80;99.90
6810;DHT22;3443;48.812;9.112;2022-11-15T01:04:48;9.70;99.90
6810;DHT22;3443;48.812;9.112;2022-11-15T01:07:14;9.60;99.90
6810;DHT22;3443;48.812;9.112;2022-11-15T01:09:40;9.60;99.90
6810;DHT22;3443;48.812;9.112;2022-11-15T01:12:05;9.70;99.90
6810;DHT22;3443;48.812;9.112;2022-11-15T01:14:31;9.60;99.90
6810;DHT22;3443;48.812;9.112;2022-11-15T01:16:56;9.60;99.90
6810;DHT22;3443;48.812;9.112;2022-11-15T01:19:22;9.70;99.90
6810;DHT22;3443;48.812;9.112;2022-11-15T01:21:51;9.70;99.90
6810;DHT22;3443;48.812;9.112;2022-11-15T01:24:16;9.70;99.90
6810;DHT22;3443;48.812;9.112;2022-11-15T01:26:42;9.60;99.90
6810;DHT22;3443;48.812;9.112;2022-11-15T01:29:07;9.40;99.90
6810;DHT22;3443;48.812;9.112;2022-11-15T01:31:33;9.30;99.90
6810;DHT22;3443;48.812;9.112;2022-11-15T01:33:58;9.10;99.90
6810;DHT22;3443;48.812;9.112;2022-11-15T01:36:24;9.00;99.90
6810;DHT22;3443;48.812;9.112;2022-11-15T01:38:54;8.80;99.90
6810;DHT22;3443;48.812;9.112;2022-11-15T01:41:26;8.70;99.90
6810;DHT22;3443;48.812;9.112;2022-11-15T01:43:54;8.70;99.90
6810;DHT22;3443;48.812;9.112;2022-11-15T01:46:35;8.60;99.90
6810;DHT22;3443;48.812;9.112;2022-11-15T01:49:09;8.60;99.90
6810;DHT22;3443;48.812;9.112;2022-11-15T01:51:37;8.50;99.90
6810;DHT22;3443;48.812;9.112;2022-11-15T01:54:07;8.50;99.90
6810;DHT22;3443;48.812;9.112;2022-11-15T01:56:38;8.50;99.90
6810;DHT22;3443;48.812;9.112;2022-11-15T01:59:08;8.50;99.90
6810;DHT22;3443;48.812;9.112;2022-11-15T02:01:34;8.50;99.90
6810;DHT22;3443;48.812;9.112;2022-11-15T02:06:35;8.50;99.90
6810;DHT22;3443;48.812;9.112;2022-11-15T02:09:02;8.50;99.90
6810;DHT22;3443;48.812;9.112;2022-11-15T02:11:28;8.60;99.90
6810;DHT22;3443;48.812;9.112;2022-11-15T02:13:54;8.80;99.90
6810;DHT22;3443;48.812;9.112;2022-11-15T02:19:28;9.10;99.90
6810;DHT22;3443;48.812;9.112;2022-11-15T02:22:24;9.10;99.90
6810;DHT22;3443;48.812;9.112;2022-11-15T02:28:10;9.00;99.90
6810;DHT22;3443;48.812;9.112;2022-11-15T02:30:45;8.90;99.90
6810;DHT22;3443;48.812;9.112;2022-11-15T02:33:16;8.90;99.90
6810;DHT22;3443;48.812;9.112;2022-11-15T02:35:58;8.90;99.90
6810;DHT22;3443;48.812;9.112;2022-11-15T02:38:40;8.80;99.90
6810;DHT22;3443;48.812;9.112;2022-11-15T02:41:18;8.70;99.90
6810;DHT22;3443;48.812;9.112;2022-11-15T02:44:35;8.70;99.90
6810;DHT22;3443;48.812;9.112;2022-11-15T02:46:48;8.70;99.90
6810;DHT22;3443;48.812;9.112;2022-11-15T02:49:34;8.70;99.90
6810;DHT22;3443;48.812;9.112;2022-11-15T02:52:00;8.90;99.90
6810;DHT22;3443;48.812;9.112;2022-11-15T02:54:31;8.70;99.90
6810;DHT22;3443;48.812;9.112;2022-11-15T02:57:04;8.70;99.90
6810;DHT22;3443;48.812;9.112;2022-11-15T03:00:17;8.70;99.90
6810;DHT22;3443;48.812;9.112;2022-11-15T03:02:59;8.60;99.90
6810;DHT22;3443;48.812;9.112;2022-11-15T03:08:31;8.50;99.90
6810;DHT22;3443;48.812;9.112;2022-11-15T03:11:06;8.40;99.90
6810;DHT22;3443;48.812;9.112;2022-11-15T03:13:37;8.20;99.90
6810;DHT22;3443;48.812;9.112;2022-11-15T03:18:42;8.10;99.90
6810;DHT22;3443;48.812;9.112;2022-11-15T03:21:11;8.10;99.90
6810;DHT22;3443;48.812;9.112;2022-11-15T03:23:39;8.10;99.90
6810;DHT22;3443;48.812;9.112;2022-11-15T03:26:07;8.00;99.90
6810;DHT22;3443;48.812;9.112;2022-11-15T03:28:47;8.00;99.90
6810;DHT22;3443;48.812;9.112;2022-11-15T03:31:15;7.90;99.90
6810;DHT22;3443;48.812;9.112;2022-11-15T03:34:05;7.90;99.90
6810;DHT22;3443;48.812;9.112;2022-11-15T03:36:33;7.90;99.90
6810;DHT22;3443;48.812;9.112;2022-11-15T03:39:02;7.90;99.90
6810;DHT22;3443;48.812;9.112;2022-11-15T03:41:42;7.90;99.90
6810;DHT22;3443;48.812;9.112;2022-11-15T03:46:59;7.80;99.90
6810;DHT22;3443;48.812;9.112;2022-11-15T03:49:29;7.80;99.90
6810;DHT22;3443;48.812;9.112;2022-11-15T03:51:57;7.90;99.90
6810;DHT22;3443;48.812;9.112;2022-11-15T03:54:23;7.90;99.90
6810;DHT22;3443;48.812;9.112;2022-11-15T03:56:48;7.90;99.90
6810;DHT22;3443;48.812;9.112;2022-11-15T03:59:14;7.90;99.90
6810;DHT22;3443;48.812;9.112;2022-11-15T04:01:40;8.00;99.90
6810;DHT22;3443;48.812;9.112;2022-11-15T04:04:05;8.00;99.90
6810;DHT22;3443;48.812;9.112;2022-11-15T04:06:31;8.10;99.90
6810;DHT22;3443;48.812;9.112;2022-11-15T04:08:57;8.10;99.90
6810;DHT22;3443;48.812;9.112;2022-11-15T04:11:23;8.10;99.90
6810;DHT22;3443;48.812;9.112;2022-11-15T04:13:49;8.10;99.90
6810;DHT22;3443;48.812;9.112;2022-11-15T04:16:14;8.10;99.90
6810;DHT22;3443;48.812;9.112;2022-11-15T04:18:40;8.20;99.90
6810;DHT22;3443;48.812;9.112;2022-11-15T04:21:06;8.20;99.90
6810;DHT22;3443;48.812;9.112;2022-11-15T04:23:51;8.20;99.90
6810;DHT22;3443;48.812;9.112;2022-11-15T04:26:35;8.20;99.90
6810;DHT22;3443;48.812;9.112;2022-11-15T04:29:00;8.20;99.90
6810;DHT22;3443;48.812;9.112;2022-11-15T04:31:45;8.30;99.90
6810;DHT22;3443;48.812;9.112;2022-11-15T04:34:10;8.30;99.90
6810;DHT22;3443;48.812;9.112;2022-11-15T04:36:36;8.40;99.90
6810;DHT22;3443;48.812;9.112;2022-11-15T04:39:19;8.30;99.90
6810;DHT22;3443;48.812;9.112;2022-11-15T04:41:45;8.30;99.90
6810;DHT22;3443;48.812;9.112;2022-11-15T04:44:11;8.30;99.90
6810;DHT22;3443;48.812;9.112;2022-11-15T04:46:36;8.40;99.90
6810;DHT22;3443;48.812;9.112;2022-11-15T04:49:02;8.40;99.90
6810;DHT22;3443;48.812;9.112;2022-11-15T04:51:27;8.30;99.90
6810;DHT22;3443;48.812;9.112;2022-11-15T04:53:53;8.30;99.90
6810;DHT22;3443;48.812;9.112;2022-11-15T04:56:19;8.40;99.90
6810;DHT22;3443;48.812;9.112;2022-11-15T04:58:45;8.30;99.90
6810;DHT22;3443;48.812;9.112;2022-11-15T05:01:12;8.30;99.90
6810;DHT22;3443;48.812;9.112;2022-11-15T05:03:41;8.30;99.90
6810;DHT22;3443;48.812;9.112;2022-11-15T05:06:25;8.20;99.90
6810;DHT22;3443;48.812;9.112;2022-11-15T05:08:51;8.00;99.90
6810;DHT22;3443;48.812;9.112;2022-11-15T05:11:17;8.00;99.90
6810;DHT22;3443;48.812;9.112;2022-11-15T05:13:42;8.00;99.90
6810;DHT22;3443;48.812;9.112;2022-11-15T05:16:08;8.10;99.90
6810;DHT22;3443;48.812;9.112;2022-11-15T05:18:34;8.30;99.90
6810;DHT22;3443;48.812;9.112;2022-11-15T05:21:04;8.40;99.90
6810;DHT22;3443;48.812;9.112;2022-11-15T05:23:30;8.40;99.90
6810;DHT22;3443;48.812;9.112;2022-11-15T05:26:02;8.30;99.90
6810;DHT22;3443;48.812;9.112;2022-11-15T05:28:28;8.20;99.90
6810;DHT22;3443;48.812;9.112;2022-11-15T05:31:03;8.20;99.90
6810;DHT22;3443;48.812;9.112;2022-11-15T05:33:28;8.10;99.90
6810;DHT22;3443;48.812;9.112;2022-11-15T05:38:28;8.00;99.90
6810;DHT22;3443;48.812;9.112;2022-11-15T05:40:54;8.20;99.90
6810;DHT22;3443;48.812;9.112;2022-11-15T05:43:20;8.30;99.90
6810;DHT22;3443;48.812;9.112;2022-11-15T05:45:46;8.30;99.90
6810;DHT22;3443;48.812;9.112;2022-11-15T05:48:12;8.40;99.90
6810;DHT22;3443;48.812;9.112;2022-11-15T05:50:40;8.40;99.90
6810;DHT22;3443;48.812;9.112;2022-11-15T05:53:07;8.50;99.90
6810;DHT22;3443;48.812;9.112;2022-11-15T05:55:33;8.60;99.90
6810;DHT22;3443;48.812;9.112;2022-11-15T05:58:00;8.90;99.90
6810;DHT22;3443;48.812;9.112;2022-11-15T06:00:25;8.80;99.90
6810;DHT22;3443;48.812;9.112;2022-11-15T06:02:51;8.80;99.90
6810;DHT22;3443;48.812;9.112;2022-11-15T06:05:17;8.80;99.90
6810;DHT22;3443;48.812;9.112;2022-11-15T06:07:42;8.80;99.90
6810;DHT22;3443;48.812;9.112;2022-11-15T06:10:09;9.00;99.90
6810;DHT22;3443;48.812;9.112;2022-11-15T06:12:35;9.00;99.90
6810;DHT22;3443;48.812;9.112;2022-11-15T06:15:00;9.10;99.90
6810;DHT22;3443;48.812;9.112;2022-11-15T06:17:26;9.20;99.90
6810;DHT22;3443;48.812;9.112;2022-11-15T06:19:51;9.20;99.90
6810;DHT22;3443;48.812;9.112;2022-11-15T06:22:17;9.20;99.90
6810;DHT22;3443;48.812;9.112;2022-11-15T06:24:43;9.10;99.90
6810;DHT22;3443;48.812;9.112;2022-11-15T06:27:10;9.10;99.90
6810;DHT22;3443;48.812;9.112;2022-11-15T06:29:36;9.10;99.90
6810;DHT22;3443;48.812;9.112;2022-11-15T06:32:01;9.00;99.90
6810;DHT22;3443;48.812;9.112;2022-11-15T06:34:27;8.90;99.90
6810;DHT22;3443;48.812;9.112;2022-11-15T06:36:53;8.90;99.90
6810;DHT22;3443;48.812;9.112;2022-11-15T06:39:18;8.90;99.90
6810;DHT22;3443;48.812;9.112;2022-11-15T06:41:44;8.90;99.90
6810;DHT22;3443;48.812;9.112;2022-11-15T06:44:09;8.90;99.90
6810;DHT22;3443;48.812;9.112;2022-11-15T06:46:35;9.00;99.90
6810;DHT22;3443;48.812;9.112;2022-11-15T06:49:00;9.00;99.90
6810;DHT22;3443;48.812;9.112;2022-11-15T06:51:26;9.00;99.90
6810;DHT22;3443;48.812;9.112;2022-11-15T06:53:52;9.00;99.90
6810;DHT22;3443;48.812;9.112;2022-11-15T06:56:17;9.10;99.90
6810;DHT22;3443;48.812;9.112;2022-11-15T06:58:43;9.30;99.90
6810;DHT22;3443;48.812;9.112;2022-11-15T07:01:11;9.10;99.90
6810;DHT22;3443;48.812;9.112;2022-11-15T07:03:41;9.10;99.90
6810;DHT22;3443;48.812;9.112;2022-11-15T07:06:07;9.10;99.90
6810;DHT22;3443;48.812;9.112;2022-11-15T07:08:34;9.20;99.90
6810;DHT22;3443;48.812;9.112;2022-11-15T07:11:06;9.20;99.90
6810;DHT22;3443;48.812;9.112;2022-11-15T07:13:32;9.30;99.90
6810;DHT22;3443;48.812;9.112;2022-11-15T07:16:02;9.30;99.90
6810;DHT22;3443;48.812;9.112;2022-11-15T07:18:28;9.30;99.90
6810;DHT22;3443;48.812;9.112;2022-11-15T07:20:53;9.30;99.90
6810;DHT22;3443;48.812;9.112;2022-11-15T07:23:19;9.30;99.90
6810;DHT22;3443;48.812;9.112;2022-11-15T07:25:44;9.30;99.90
6810;DHT22;3443;48.812;9.112;2022-11-15T07:28:10;9.40;99.90
6810;DHT22;3443;48.812;9.112;2022-11-15T07:30:36;9.40;99.90
6810;DHT22;3443;48.812;9.112;2022-11-15T07:33:01;9.50;99.90
6810;DHT22;3443;48.812;9.112;2022-11-15T07:35:28;9.60;99.90
6810;DHT22;3443;48.812;9.112;2022-11-15T07:40:20;10.00;99.90
6810;DHT22;3443;48.812;9.112;2022-11-15T07:42:46;10.10;99.90
6810;DHT22;3443;48.812;9.112;2022-11-15T07:45:23;10.30;99.90
6810;DHT22;3443;48.812;9.112;2022-11-15T07:47:51;10.40;99.90
6810;DHT22;3443;48.812;9.112;2022-11-15T07:50:17;10.60;99.90
6810;DHT22;3443;48.812;9.112;2022-11-15T07:52:43;10.60;99.90
6810;DHT22;3443;48.812;9.112;2022-11-15T07:55:09;10.60;99.90
6810;DHT22;3443;48.812;9.112;2022-11-15T07:57:35;10.60;99.90
6810;DHT22;3443;48.812;9.112;2022-11-15T08:00:01;10.60;99.90
6810;DHT22;3443;48.812;9.112;2022-11-15T08:02:26;10.60;99.90
6810;DHT22;3443;48.812;9.112;2022-11-15T08:04:52;10.70;99.90
6810;DHT22;3443;48.812;9.112;2022-11-15T08:07:17;10.90;99.90
6810;DHT22;3443;48.812;9.112;2022-11-15T08:09:43;11.10;99.90
6810;DHT22;3443;48.812;9.112;2022-11-15T08:12:09;11.30;99.90
6810;DHT22;3443;48.812;9.112;2022-11-15T08:14:35;11.50;99.90
6810;DHT22;3443;48.812;9.112;2022-11-15T08:17:01;11.60;99.90
6810;DHT22;3443;48.812;9.112;2022-11-15T08:19:26;11.60;99.90
6810;DHT22;3443;48.812;9.112;2022-11-15T08:21:52;11.70;99.90
6810;DHT22;3443;48.812;9.112;2022-11-15T08:24:18;11.90;99.90
6810;DHT22;3443;48.812;9.112;2022-11-15T08:26:44;12.00;99.90
6810;DHT22;3443;48.812;9.112;2022-11-15T08:29:09;12.20;99.90
6810;DHT22;3443;48.812;9.112;2022-11-15T08:31:36;12.30;99.90
6810;DHT22;3443;48.812;9.112;2022-11-15T08:34:02;12.40;99.90
6810;DHT22;3443;48.812;9.112;2022-11-15T08:36:28;12.30;99.90
6810;DHT22;3443;48.812;9.112;2022-11-15T08:38:54;12.40;99.90
6810;DHT22;3443;48.812;9.112;2022-11-15T08:41:26;12.70;99.90
6810;DHT22;3443;48.812;9.112;2022-11-15T08:43:52;12.50;99.90
6810;DHT22;3443;48.812;9.112;2022-11-15T08:46:17;12.50;99.90
6810;DHT22;3443;48.812;9.112;2022-11-15T08:48:44;12.60;99.90
6810;DHT22;3443;48.812;9.112;2022-11-15T08:51:10;12.70;99.90
6810;DHT22;3443;48.812;9.112;2022-11-15T08:53:35;12.90;99.90
6810;DHT22;3443;48.812;9.112;2022-11-15T08:56:01;12.80;99.90
6810;DHT22;3443;48.812;9.112;2022-11-15T08:58:27;12.90;99.90
6810;DHT22;3443;48.812;9.112;2022-11-15T09:00:52;13.10;99.90
6810;DHT22;3443;48.812;9.112;2022-11-15T09:03:18;13.20;99.90
6810;DHT22;3443;48.812;9.112;2022-11-15T09:05:43;13.20;99.90
6810;DHT22;3443;48.812;9.112;2022-11-15T09:08:09;13.40;99.90
6810;DHT22;3443;48.812;9.112;2022-11-15T09:10:35;13.40;99.90
6810;DHT22;3443;48.812;9.112;2022-11-15T09:13:01;13.40;99.90
6810;DHT22;3443;48.812;9.112;2022-11-15T09:15:27;13.40;99.90
6810;DHT22;3443;48.812;9.112;2022-11-15T09:17:53;13.60;99.90
6810;DHT22;3443;48.812;9.112;2022-11-15T09:20:18;13.70;99.90
6810;DHT22;3443;48.812;9.112;2022-11-15T09:22:44;13.60;99.90
6810;DHT22;3443;48.812;9.112;2022-11-15T09:25:09;13.60;99.90
6810;DHT22;3443;48.812;9.112;2022-11-15T09:27:35;13.60;99.90
6810;DHT22;3443;48.812;9.112;2022-11-15T09:30:00;13.60;99.90
6810;DHT22;3443;48.812;9.112;2022-11-15T09:32:29;13.70;99.90
6810;DHT22;3443;48.812;9.112;2022-11-15T09:34:55;13.80;99.90
6810;DHT22;3443;48.812;9.112;2022-11-15T09:37:21;13.70;99.90
6810;DHT22;3443;48.812;9.112;2022-11-15T09:39:47;13.90;99.90
6810;DHT22;3443;48.812;9.112;2022-11-15T09:50:16;14.10;99.90
6810;DHT22;3443;48.812;9.112;2022-11-15T09:52:45;14.20;99.90
6810;DHT22;3443;48.812;9.112;2022-11-15T09:57:57;14.30;99.90
6810;DHT22;3443;48.812;9.112;2022-11-15T10:00:47;14.30;99.90
6810;DHT22;3443;48.812;9.112;2022-11-15T10:03:34;14.30;99.90
6810;DHT22;3443;48.812;9.112;2022-11-15T10:06:04;14.20;99.90
6810;DHT22;3443;48.812;9.112;2022-11-15T10:11:05;14.30;99.90
6810;DHT22;3443;48.812;9.112;2022-11-15T10:13:43;14.30;99.90
6810;DHT22;3443;48.812;9.112;2022-11-15T10:18:54;14.30;99.90
6810;DHT22;3443;48.812;9.112;2022-11-15T10:24:13;14.30;99.90
6810;DHT22;3443;48.812;9.112;2022-11-15T10:26:47;14.30;99.90
6810;DHT22;3443;48.812;9.112;2022-11-15T10:29:18;14.40;99.90
6810;DHT22;3443;48.812;9.112;2022-11-15T10:31:44;14.50;99.90
6810;DHT22;3443;48.812;9.112;2022-11-15T10:34:18;14.50;99.90
6810;DHT22;3443;48.812;9.112;2022-11-15T10:36:45;14.50;99.90
6810;DHT22;3443;48.812;9.112;2022-11-15T10:39:13;14.40;99.90
6810;DHT22;3443;48.812;9.112;2022-11-15T10:41:41;14.50;99.90
6810;DHT22;3443;48.812;9.112;2022-11-15T10:46:38;14.30;99.90
6810;DHT22;3443;48.812;9.112;2022-11-15T10:49:30;14.30;99.90
6810;DHT22;3443;48.812;9.112;2022-11-15T10:52:04;14.30;99.90
6810;DHT22;3443;48.812;9.112;2022-11-15T10:54:38;14.20;99.90
6810;DHT22;3443;48.812;9.112;2022-11-15T10:57:10;14.30;99.90
6810;DHT22;3443;48.812;9.112;2022-11-15T10:59:37;14.30;99.90
6810;DHT22;3443;48.812;9.112;2022-11-15T11:02:39;14.30;99.90
6810;DHT22;3443;48.812;9.112;2022-11-15T11:10:35;14.10;99.90
6810;DHT22;3443;48.812;9.112;2022-11-15T11:13:14;14.10;99.90
6810;DHT22;3443;48.812;9.112;2022-11-15T11:15:43;14.00;99.90
6810;DHT22;3443;48.812;9.112;2022-11-15T11:18:23;14.00;99.90
6810;DHT22;3443;48.812;9.112;2022-11-15T11:20:56;13.90;99.90
6810;DHT22;3443;48.812;9.112;2022-11-15T11:23:51;13.90;99.90
6810;DHT22;3443;48.812;9.112;2022-11-15T11:29:10;14.00;99.90
6810;DHT22;3443;48.812;9.112;2022-11-15T11:37:36;14.10;99.90
6810;DHT22;3443;48.812;9.112;2022-11-15T11:45:44;14.20;99.90
6810;DHT22;3443;48.812;9.112;2022-11-15T11:48:21;14.30;99.90
6810;DHT22;3443;48.812;9.112;2022-11-15T11:50:49;14.40;99.90
6810;DHT22;3443;48.812;9.112;2022-11-15T11:53:28;14.30;99.90
6810;DHT22;3443;48.812;9.112;2022-11-15T11:56:02;14.40;99.90
6810;DHT22;3443;48.812;9.112;2022-11-15T11:58:43;14.40;99.90
6810;DHT22;3443;48.812;9.112;2022-11-15T12:01:23;14.40;99.90
6810;DHT22;3443;48.812;9.112;2022-11-15T12:04:14;14.40;99.90
6810;DHT22;3443;48.812;9.112;2022-11-15T12:11:58;14.70;99.90
6810;DHT22;3443;48.812;9.112;2022-11-15T12:14:45;14.60;99.90
6810;DHT22;3443;48.812;9.112;2022-11-15T12:17:11;14.70;99.90
6810;DHT22;3443;48.812;9.112;2022-11-15T12:19:38;14.60;99.90
6810;DHT22;3443;48.812;9.112;2022-11-15T12:22:21;14.60;99.90
6810;DHT22;3443;48.812;9.112;2022-11-15T12:25:15;14.60;99.90
6810;DHT22;3443;48.812;9.112;2022-11-15T12:27:48;14.60;99.90
6810;DHT22;3443;48.812;9.112;2022-11-15T12:30:19;14.60;99.90
6810;DHT22;3443;48.812;9.112;2022-11-15T12:33:00;14.50;99.90
6810;DHT22;3443;48.812;9.112;2022-11-15T12:35:39;14.40;99.90
6810;DHT22;3443;48.812;9.112;2022-11-15T12:38:09;14.30;99.90
6810;DHT22;3443;48.812;9.112;2022-11-15T12:40:37;14.60;99.90
6810;DHT22;3443;48.812;9.112;2022-11-15T12:45:33;14.20;99.90
6810;DHT22;3443;48.812;9.112;2022-11-15T12:58:55;14.00;99.90
6810;DHT22;3443;48.812;9.112;2022-11-15T13:06:56;13.90;99.90
6810;DHT22;3443;48.812;9.112;2022-11-15T13:12:06;14.00;99.90
6810;DHT22;3443;48.812;9.112;2022-11-15T13:14:47;13.90;99.90
6810;DHT22;3443;48.812;9.112;2022-11-15T13:22:18;13.90;99.90
6810;DHT22;3443;48.812;9.112;2022-11-15T13:25:03;13.80;99.90
6810;DHT22;3443;48.812;9.112;2022-11-15T13:27:29;13.80;99.90
6810;DHT22;3443;48.812;9.112;2022-11-15T13:29:55;13.80;99.90
6810;DHT22;3443;48.812;9.112;2022-11-15T13:32:21;13.70;99.90
6810;DHT22;3443;48.812;9.112;2022-11-15T13:34:48;13.70;99.90
6810;DHT22;3443;48.812;9.112;2022-11-15T13:39:47;13.70;99.90
6810;DHT22;3443;48.812;9.112;2022-11-15T13:42:16;13.70;99.90
6810;DHT22;3443;48.812;9.112;2022-11-15T13:45:01;13.50;99.90
6810;DHT22;3443;48.812;9.112;2022-11-15T13:47:29;13.70;99.90
6810;DHT22;3443;48.812;9.112;2022-11-15T13:49:59;13.90;99.90
6810;DHT22;3443;48.812;9.112;2022-11-15T13:52:32;13.70;99.90
6810;DHT22;3443;48.812;9.112;2022-11-15T13:55:00;13.70;99.90
6810;DHT22;3443;48.812;9.112;2022-11-15T14:00:42;13.70;99.90
6810;DHT22;3443;48.812;9.112;2022-11-15T14:05:43;13.60;99.90
6810;DHT22;3443;48.812;9.112;2022-11-15T14:10:41;13.40;99.90
6810;DHT22;3443;48.812;9.112;2022-11-15T14:13:27;13.40;99.90
6810;DHT22;3443;48.812;9.112;2022-11-15T14:15:53;13.40;99.90
6810;DHT22;3443;48.812;9.112;2022-11-15T14:18:50;13.20;99.90
6810;DHT22;3443;48.812;9.112;2022-11-15T14:21:17;13.10;99.90
6810;DHT22;3443;48.812;9.112;2022-11-15T14:23:43;13.10;99.90
6810;DHT22;3443;48.812;9.112;2022-11-15T14:26:31;13.10;99.90
6810;DHT22;3443;48.812;9.112;2022-11-15T14:29:00;13.00;99.90
6810;DHT22;3443;48.812;9.112;2022-11-15T14:31:43;13.00;99.90
6810;DHT22;3443;48.812;9.112;2022-11-15T14:34:11;13.00;99.90
6810;DHT22;3443;48.812;9.112;2022-11-15T14:36:36;12.90;99.90
6810;DHT22;3443;48.812;9.112;2022-11-15T14:39:02;12.90;99.90
6810;DHT22;3443;48.812;9.112;2022-11-15T14:41:34;12.90;99.90
6810;DHT22;3443;48.812;9.112;2022-11-15T14:44:04;12.90;99.90
6810;DHT22;3443;48.812;9.112;2022-11-15T14:46:30;12.90;99.90
6810;DHT22;3443;48.812;9.112;2022-11-15T14:48:56;12.90;99.90
6810;DHT22;3443;48.812;9.112;2022-11-15T14:51:21;12.90;99.90
6810;DHT22;3443;48.812;9.112;2022-11-15T14:53:47;12.90;99.90
6810;DHT22;3443;48.812;9.112;2022-11-15T14:56:14;12.90;99.90
6810;DHT22;3443;48.812;9.112;2022-11-15T14:58:40;12.90;99.90
6810;DHT22;3443;48.812;9.112;2022-11-15T15:01:23;12.80;99.90
6810;DHT22;3443;48.812;9.112;2022-11-15T15:03:49;12.80;99.90
6810;DHT22;3443;48.812;9.112;2022-11-15T15:06:17;12.80;99.90
6810;DHT22;3443;48.812;9.112;2022-11-15T15:08:43;12.80;99.90
6810;DHT22;3443;48.812;9.112;2022-11-15T15:11:26;12.70;99.90
6810;DHT22;3443;48.812;9.112;2022-11-15T15:13:52;12.70;99.90
6810;DHT22;3443;48.812;9.112;2022-11-15T15:16:18;12.70;99.90
6810;DHT22;3443;48.812;9.112;2022-11-15T15:18:44;12.60;99.90
6810;DHT22;3443;48.812;9.112;2022-11-15T15:21:24;12.60;99.90
6810;DHT22;3443;48.812;9.112;2022-11-15T15:23:51;12.60;99.90
6810;DHT22;3443;48.812;9.112;2022-11-15T15:26:19;12.60;99.90
6810;DHT22;3443;48.812;9.112;2022-11-15T15:28:45;12.60;99.90
6810;DHT22;3443;48.812;9.112;2022-11-15T15:31:10;12.50;99.90
6810;DHT22;3443;48.812;9.112;2022-11-15T15:33:36;12.50;99.90
6810;DHT22;3443;48.812;9.112;2022-11-15T15:36:03;12.50;99.90
6810;DHT22;3443;48.812;9.112;2022-11-15T15:38:29;12.40;99.90
6810;DHT22;3443;48.812;9.112;2022-11-15T15:40:54;12.30;99.90
6810;DHT22;3443;48.812;9.112;2022-11-15T15:43:20;12.30;99.90
6810;DHT22;3443;48.812;9.112;2022-11-15T15:45:46;12.20;99.90
6810;DHT22;3443;48.812;9.112;2022-11-15T15:48:16;12.20;99.90
6810;DHT22;3443;48.812;9.112;2022-11-15T15:50:42;12.20;99.90
6810;DHT22;3443;48.812;9.112;2022-11-15T15:53:09;12.20;99.90
6810;DHT22;3443;48.812;9.112;2022-11-15T15:55:36;12.20;99.90
6810;DHT22;3443;48.812;9.112;2022-11-15T15:58:02;12.20;99.90
6810;DHT22;3443;48.812;9.112;2022-11-15T16:00:28;12.10;99.90
6810;DHT22;3443;48.812;9.112;2022-11-15T16:02:54;12.10;99.90
6810;DHT22;3443;48.812;9.112;2022-11-15T16:05:21;12.10;99.90
6810;DHT22;3443;48.812;9.112;2022-11-15T16:07:47;11.80;99.90
6810;DHT22;3443;48.812;9.112;2022-11-15T16:10:27;12.20;99.90
6810;DHT22;3443;48.812;9.112;2022-11-15T16:12:54;12.20;99.90
6810;DHT22;3443;48.812;9.112;2022-11-15T16:15:21;12.20;99.90
6810;DHT22;3443;48.812;9.112;2022-11-15T16:17:50;12.20;99.90
6810;DHT22;3443;48.812;9.112;2022-11-15T16:22:49;12.20;99.90
6810;DHT22;3443;48.812;9.112;2022-11-15T16:25:14;12.20;99.90
6810;DHT22;3443;48.812;9.112;2022-11-15T16:27:41;12.20;99.90
6810;DHT22;3443;48.812;9.112;2022-11-15T16:30:18;12.20;99.90
6810;DHT22;3443;48.812;9.112;2022-11-15T16:32:44;12.20;99.90
6810;DHT22;3443;48.812;9.112;2022-11-15T16:35:14;12.10;99.90
6810;DHT22;3443;48.812;9.112;2022-11-15T16:37:40;12.10;99.90
6810;DHT22;3443;48.812;9.112;2022-11-15T16:40:31;12.10;99.90
6810;DHT22;3443;48.812;9.112;2022-11-15T16:42:58;12.10;99.90
6810;DHT22;3443;48.812;9.112;2022-11-15T16:45:25;12.20;99.90
6810;DHT22;3443;48.812;9.112;2022-11-15T16:47:52;12.10;99.90
6810;DHT22;3443;48.812;9.112;2022-11-15T16:50:29;12.10;99.90
6810;DHT22;3443;48.812;9.112;2022-11-15T16:52:57;12.10;99.90
6810;DHT22;3443;48.812;9.112;2022-11-15T16:55:26;12.00;99.90
6810;DHT22;3443;48.812;9.112;2022-11-15T16:57:53;12.00;99.90
6810;DHT22;3443;48.812;9.112;2022-11-15T17:00:20;12.00;99.90
6810;DHT22;3443;48.812;9.112;2022-11-15T17:02:47;12.10;99.90
6810;DHT22;3443;48.812;9.112;2022-11-15T17:05:15;12.00;99.90
6810;DHT22;3443;48.812;9.112;2022-11-15T17:07:41;12.10;99.90
6810;DHT22;3443;48.812;9.112;2022-11-15T17:10:09;12.10;99.90
6810;DHT22;3443;48.812;9.112;2022-11-15T17:12:35;12.20;99.90
6810;DHT22;3443;48.812;9.112;2022-11-15T17:15:01;12.20;99.90
6810;DHT22;3443;48.812;9.112;2022-11-15T17:17:29;12.20;99.90
6810;DHT22;3443;48.812;9.112;2022-11-15T17:19:55;12.30;99.90
6810;DHT22;3443;48.812;9.112;2022-11-15T17:22:21;12.40;99.90
6810;DHT22;3443;48.812;9.112;2022-11-15T17:24:46;12.30;99.90
6810;DHT22;3443;48.812;9.112;2022-11-15T17:27:12;12.30;99.90
6810;DHT22;3443;48.812;9.112;2022-11-15T17:29:37;12.20;99.90
6810;DHT22;3443;48.812;9.112;2022-11-15T17:32:03;12.20;99.90
6810;DHT22;3443;48.812;9.112;2022-11-15T17:34:29;12.20;99.90
6810;DHT22;3443;48.812;9.112;2022-11-15T17:36:54;12.20;99.90
6810;DHT22;3443;48.812;9.112;2022-11-15T17:39:20;12.20;99.90
6810;DHT22;3443;48.812;9.112;2022-11-15T17:41:48;12.20;99.90
6810;DHT22;3443;48.812;9.112;2022-11-15T17:44:14;12.30;99.90
6810;DHT22;3443;48.812;9.112;2022-11-15T17:46:40;12.20;99.90
6810;DHT22;3443;48.812;9.112;2022-11-15T17:49:06;12.20;99.90
6810;DHT22;3443;48.812;9.112;2022-11-15T17:51:32;12.20;99.90
6810;DHT22;3443;48.812;9.112;2022-11-15T17:53:57;12.20;99.90
6810;DHT22;3443;48.812;9.112;2022-11-15T17:56:25;12.20;99.90
6810;DHT22;3443;48.812;9.112;2022-11-15T17:58:56;12.10;99.90
6810;DHT22;3443;48.812;9.112;2022-11-15T18:01:25;12.10;99.90
6810;DHT22;3443;48.812;9.112;2022-11-15T18:03:52;12.10;99.90
6810;DHT22;3443;48.812;9.112;2022-11-15T18:06:19;12.10;99.90
6810;DHT22;3443;48.812;9.112;2022-11-15T18:08:47;12.10;99.90